Time;durP1;ratioP1;P1;durP2;ratioP2;P2;SDS_P1;SDS_P2;PMS_P1;PMS_P2;Temp;Humidity;BMP_temperature;BMP_pressure;BME280_temperature;BME280_humidity;BME280_pressure;Samples;Min_cycle;Max_cycle;Signal;HPM_P1;HPM_P2
2023/11/02 00:01:32;;;;;;;2.10;0.90;;;;;;;;;;5047200;28;20241;-59
2023/11/02 00:03:58;;;;;;;1.25;0.88;;;;;;;;;;5046534;28;20025;-58
2023/11/02 00:06:36;;;;;;;2.10;0.95;;;;;;;;;;5047537;28;20059;-58
2023/11/02 00:09:10;;;;;;;2.03;0.82;;;;;;;;;;5046605;28;20056;-58
2023/11/02 00:11:57;;;;;;;1.52;1.35;;;;;;;;;;5043384;28;20043;-58
2023/11/02 00:14:27;;;;;;;1.70;1.00;;;;;;;;;;5044700;28;20037;-58
2023/11/02 00:16:55;;;;;;;2.35;1.00;;;;;;;;;;5049943;28;20525;-58
2023/11/02 00:19:30;;;;;;;1.83;1.00;;;;;;;;;;5047717;28;20044;-58
2023/11/02 00:22:06;;;;;;;1.75;0.80;;;;;;;;;;5049979;28;20402;-58
2023/11/02 00:24:35;;;;;;;2.72;1.00;;;;;;;;;;5048343;28;20041;-58
2023/11/02 00:27:02;;;;;;;1.95;1.08;;;;;;;;;;5049092;28;20037;-58
2023/11/02 00:29:30;;;;;;;2.05;1.20;;;;;;;;;;5046923;28;20041;-58
2023/11/02 00:31:56;;;;;;;1.92;1.17;;;;;;;;;;5047715;28;20422;-60
2023/11/02 00:34:22;;;;;;;2.38;1.20;;;;;;;;;;5047548;28;20049;-58
2023/11/02 00:36:48;;;;;;;12.10;1.65;;;;;;;;;;5047497;28;20038;-59
2023/11/02 00:39:14;;;;;;;2.85;1.80;;;;;;;;;;5046840;28;20045;-59
2023/11/02 00:41:41;;;;;;;4.25;1.50;;;;;;;;;;5049343;28;20045;-58
2023/11/02 00:44:07;;;;;;;2.55;1.30;;;;;;;;;;5049052;28;20064;-58
2023/11/02 00:46:34;;;;;;;3.47;1.52;;;;;;;;;;5048892;28;20025;-58
2023/11/02 00:49:01;;;;;;;2.53;1.30;;;;;;;;;;5047837;28;20049;-58
2023/11/02 00:51:30;;;;;;;4.05;1.73;;;;;;;;;;5048718;28;20047;-58
2023/11/02 00:53:57;;;;;;;;;;;;;;;;;;5049526;28;20429;-58
2023/11/02 00:56:28;;;;;;;2.03;1.38;;;;;;;;;;5047390;28;19921;-58
2023/11/02 00:58:55;;;;;;;4.85;2.40;;;;;;;;;;5046913;28;20037;-58
2023/11/02 01:01:24;;;;;;;4.45;1.60;;;;;;;;;;5042849;28;20549;-59
2023/11/02 01:03:56;;;;;;;4.60;1.70;;;;;;;;;;5047499;28;20441;-59
2023/11/02 01:06:27;;;;;;;3.75;1.50;;;;;;;;;;5042587;28;20040;-59
2023/11/02 01:08:56;;;;;;;2.28;1.55;;;;;;;;;;5043314;28;20506;-59
2023/11/02 01:11:28;;;;;;;2.17;1.80;;;;;;;;;;5047857;28;20044;-59
2023/11/02 01:13:56;;;;;;;3.70;2.33;;;;;;;;;;5046848;28;20064;-59
2023/11/02 01:16:23;;;;;;;4.05;2.15;;;;;;;;;;5047223;28;20414;-59
2023/11/02 01:18:49;;;;;;;4.03;1.92;;;;;;;;;;5047380;28;20045;-59
2023/11/02 01:21:16;;;;;;;6.18;2.40;;;;;;;;;;5048577;28;20076;-59
2023/11/02 01:23:42;;;;;;;4.28;2.40;;;;;;;;;;5047002;28;20037;-59
2023/11/02 01:27:00;;;;;;;4.35;2.50;;;;;;;;;;5048380;28;20506;-59
2023/11/02 01:29:28;;;;;;;4.72;2.67;;;;;;;;;;5009564;28;20499;-59
2023/11/02 01:31:55;;;;;;;3.72;2.35;;;;;;;;;;5010051;28;20049;-59
2023/11/02 01:34:21;;;;;;;3.78;2.50;;;;;;;;;;5032247;28;20045;-59
2023/11/02 01:36:47;;;;;;;5.20;2.22;;;;;;;;;;5048415;28;20036;-59
2023/11/02 01:39:13;;;;;;;3.60;2.20;;;;;;;;;;5046595;28;20033;-59
2023/11/02 01:41:52;;;;;;;4.60;2.40;;;;;;;;;;5046595;28;20462;-60
2023/11/02 01:44:46;;;;;;;4.35;2.28;;;;;;;;;;5046248;28;20514;-59
2023/11/02 01:47:36;;;;;;;5.57;2.58;;;;;;;;;;5048166;28;20045;-59
2023/11/02 01:50:11;;;;;;;;;;;;;;;;;;5047104;28;20502;-59
2023/11/02 01:53:01;;;;;;;4.10;2.35;;;;;;;;;;5047435;28;19936;-60
2023/11/02 01:56:04;;;;;;;4.35;2.22;;;;;;;;;;5045661;28;20032;-60
2023/11/02 01:58:55;;;;;;;5.05;2.20;;;;;;;;;;5043136;28;20033;-59
2023/11/02 02:01:46;;;;;;;3.88;2.17;;;;;;;;;;5038023;28;20068;-59
2023/11/02 02:04:40;;;;;;;3.20;1.90;;;;;;;;;;5041625;28;20045;-59
2023/11/02 02:07:23;;;;;;;3.15;2.25;;;;;;;;;;5040504;28;20041;-60
2023/11/02 02:10:13;;;;;;;3.63;2.22;;;;;;;;;;5041488;28;20024;-59
2023/11/02 02:13:06;;;;;;;2.40;2.08;;;;;;;;;;5040193;28;20025;-59
2023/11/02 02:15:42;;;;;;;3.20;2.00;;;;;;;;;;5045941;28;20055;-60
2023/11/02 02:18:11;;;;;;;2.90;1.77;;;;;;;;;;5040730;28;20044;-59
2023/11/02 02:20:44;;;;;;;2.35;1.73;;;;;;;;;;5046166;28;20041;-60
2023/11/02 02:23:28;;;;;;;3.08;2.00;;;;;;;;;;5045632;28;20043;-59
2023/11/02 02:26:25;;;;;;;3.80;2.10;;;;;;;;;;5040818;28;20036;-59
2023/11/02 02:29:06;;;;;;;2.97;2.13;;;;;;;;;;5032752;28;20040;-59
2023/11/02 02:32:07;;;;;;;6.22;1.92;;;;;;;;;;5034846;28;20045;-59
2023/11/02 02:34:39;;;;;;;3.58;2.00;;;;;;;;;;5042312;28;20052;-59
2023/11/02 02:37:39;;;;;;;3.17;1.80;;;;;;;;;;5044210;28;20059;-59
2023/11/02 02:40:07;;;;;;;2.45;1.80;;;;;;;;;;5039995;28;20041;-58
2023/11/02 02:42:36;;;;;;;3.50;2.28;;;;;;;;;;5039979;28;20501;-60
2023/11/02 02:45:09;;;;;;;3.22;2.28;;;;;;;;;;5046170;28;20082;-60
2023/11/02 02:47:39;;;;;;;2.58;1.80;;;;;;;;;;5046810;28;20064;-59
2023/11/02 02:50:09;;;;;;;5.15;2.13;;;;;;;;;;5045774;28;20541;-60
2023/11/02 02:52:38;;;;;;;3.72;2.00;;;;;;;;;;5045799;28;20048;-59
2023/11/02 02:55:07;;;;;;;2.80;2.08;;;;;;;;;;5040665;28;20059;-59
2023/11/02 02:57:37;;;;;;;3.40;1.77;;;;;;;;;;5046369;28;20075;-59
2023/11/02 03:00:04;;;;;;;2.83;2.05;;;;;;;;;;5046901;28;20044;-59
2023/11/02 03:02:32;;;;;;;3.22;1.90;;;;;;;;;;5047031;28;20564;-58
2023/11/02 03:04:59;;;;;;;3.50;1.80;;;;;;;;;;5047789;28;20066;-58
2023/11/02 03:07:28;;;;;;;3.47;1.90;;;;;;;;;;5036492;28;20041;-59
2023/11/02 03:10:02;;;;;;;1.95;1.45;;;;;;;;;;5041072;28;20029;-58
2023/11/02 03:12:34;;;;;;;3.83;1.60;;;;;;;;;;5038590;28;20048;-58
2023/11/02 03:15:05;;;;;;;2.95;1.63;;;;;;;;;;5046023;28;20056;-58
2023/11/02 03:17:32;;;;;;;2.17;1.45;;;;;;;;;;5041362;28;20067;-57
2023/11/02 03:19:59;;;;;;;2.38;1.98;;;;;;;;;;5044263;28;20045;-58
2023/11/02 03:22:26;;;;;;;5.00;1.70;;;;;;;;;;5043189;28;20052;-58
2023/11/02 03:25:16;;;;;;;1.67;1.38;;;;;;;;;;5043047;28;20048;-60
2023/11/02 03:28:06;;;;;;;1.80;1.40;;;;;;;;;;5041320;28;20048;-60
2023/11/02 03:30:55;;;;;;;3.95;1.70;;;;;;;;;;5043700;28;20036;-60
2023/11/02 03:33:27;;;;;;;2.10;1.70;;;;;;;;;;5021197;28;20048;-60
2023/11/02 03:36:03;;;;;;;3.15;1.40;;;;;;;;;;5044095;28;20045;-59
2023/11/02 03:38:41;;;;;;;3.17;1.70;;;;;;;;;;5043080;28;20056;-59
2023/11/02 03:41:29;;;;;;;1.58;1.40;;;;;;;;;;5045463;28;20029;-60
2023/11/02 03:44:15;;;;;;;2.85;1.58;;;;;;;;;;5044026;28;20025;-60
2023/11/02 03:46:41;;;;;;;2.63;1.40;;;;;;;;;;5044149;28;20033;-59
2023/11/02 03:49:13;;;;;;;1.30;1.20;;;;;;;;;;5044717;28;20040;-60
2023/11/02 03:51:42;;;;;;;1.90;1.20;;;;;;;;;;5047220;28;20037;-59
2023/11/02 03:54:23;;;;;;;2.47;1.30;;;;;;;;;;5048880;28;20595;-59
2023/11/02 03:57:26;;;;;;;2.47;1.30;;;;;;;;;;5045826;28;20045;-59
2023/11/02 04:00:21;;;;;;;1.67;1.25;;;;;;;;;;5045665;28;20067;-59
2023/11/02 04:02:57;;;;;;;1.25;1.15;;;;;;;;;;5046375;28;20485;-59
2023/11/02 04:05:24;;;;;;;2.35;1.15;;;;;;;;;;5045294;28;20533;-59
2023/11/02 04:07:56;;;;;;;2.03;1.13;;;;;;;;;;5044102;28;20043;-59
2023/11/02 04:10:25;;;;;;;1.10;1.00;;;;;;;;;;5042491;28;20044;-60
2023/11/02 04:13:05;;;;;;;1.58;1.20;;;;;;;;;;5046330;28;20486;-59
2023/11/02 04:15:31;;;;;;;;;;;;;;;;;;5049634;28;20413;-59
2023/11/02 04:17:58;;;;;;;2.67;1.25;;;;;;;;;;5048331;28;20373;-59
2023/11/02 04:20:26;;;;;;;2.10;1.10;;;;;;;;;;5045151;28;20032;-59
2023/11/02 04:22:52;;;;;;;2.63;1.63;;;;;;;;;;5048950;28;20044;-60
2023/11/02 04:25:18;;;;;;;4.15;1.52;;;;;;;;;;5049027;28;20048;-59
2023/11/02 04:27:45;;;;;;;3.25;1.10;;;;;;;;;;5042679;28;20040;-59
2023/11/02 04:30:11;;;;;;;3.30;1.30;;;;;;;;;;5046755;28;20060;-59
2023/11/02 04:32:38;;;;;;;2.20;1.20;;;;;;;;;;5048448;28;20036;-59
2023/11/02 04:35:05;;;;;;;1.60;1.00;;;;;;;;;;5044832;28;20055;-58
2023/11/02 04:37:31;;;;;;;3.45;1.27;;;;;;;;;;5043031;28;20045;-58
2023/11/02 04:39:57;;;;;;;2.05;1.02;;;;;;;;;;5044850;28;20418;-58
2023/11/02 04:42:23;;;;;;;1.80;1.05;;;;;;;;;;5048231;28;20037;-58
2023/11/02 04:44:51;;;;;;;1.50;1.00;;;;;;;;;;5049658;28;20029;-59
2023/11/02 04:47:17;;;;;;;2.03;0.93;;;;;;;;;;5048834;28;20041;-58
2023/11/02 04:49:43;;;;;;;1.25;1.00;;;;;;;;;;5047345;28;20037;-57
2023/11/02 04:52:09;;;;;;;1.98;1.10;;;;;;;;;;5049228;28;20036;-59
2023/11/02 04:54:35;;;;;;;2.45;1.25;;;;;;;;;;5043625;28;20032;-59
2023/11/02 04:57:02;;;;;;;1.85;1.20;;;;;;;;;;5048851;28;20413;-59
2023/11/02 04:59:35;;;;;;;2.78;0.95;;;;;;;;;;5046857;28;20677;-59
2023/11/02 05:02:03;;;;;;;1.30;1.10;;;;;;;;;;5038030;28;20108;-59
2023/11/02 05:04:29;;;;;;;2.17;1.08;;;;;;;;;;5047896;28;20052;-59
2023/11/02 05:06:55;;;;;;;2.08;1.00;;;;;;;;;;5046285;28;20037;-58
2023/11/02 05:09:21;;;;;;;1.30;0.90;;;;;;;;;;5044010;28;20040;-59
2023/11/02 05:11:47;;;;;;;1.60;0.80;;;;;;;;;;5047296;28;20402;-59
2023/11/02 05:14:13;;;;;;;1.08;0.80;;;;;;;;;;5042372;28;20029;-59
2023/11/02 05:16:39;;;;;;;1.45;1.00;;;;;;;;;;5047600;28;20048;-59
2023/11/02 05:19:06;;;;;;;1.55;1.10;;;;;;;;;;5043299;28;20041;-59
2023/11/02 05:21:32;;;;;;;2.75;1.30;;;;;;;;;;5047961;28;20037;-59
2023/11/02 05:23:58;;;;;;;1.45;0.80;;;;;;;;;;5044878;28;20410;-59
2023/11/02 05:26:24;;;;;;;1.42;0.88;;;;;;;;;;5043880;28;20029;-59
2023/11/02 05:28:51;;;;;;;1.42;1.00;;;;;;;;;;5046288;28;20025;-59
2023/11/02 05:31:17;;;;;;;1.30;0.90;;;;;;;;;;5048215;28;20068;-59
2023/11/02 05:33:43;;;;;;;1.63;0.70;;;;;;;;;;5043927;28;21305;-59
2023/11/02 05:36:09;;;;;;;0.93;0.70;;;;;;;;;;5046428;28;20048;-59
2023/11/02 05:38:36;;;;;;;1.73;0.88;;;;;;;;;;5044275;28;20503;-59
2023/11/02 05:41:02;;;;;;;1.33;0.80;;;;;;;;;;5048016;28;20032;-59
2023/11/02 05:43:28;;;;;;;4.43;0.80;;;;;;;;;;5045550;28;20041;-59
2023/11/02 05:45:54;;;;;;;0.95;0.70;;;;;;;;;;5047582;28;20041;-59
2023/11/02 05:48:21;;;;;;;1.65;0.50;;;;;;;;;;5046168;28;20087;-60
2023/11/02 05:50:47;;;;;;;1.25;0.80;;;;;;;;;;5046330;28;20049;-59
2023/11/02 05:53:13;;;;;;;1.27;0.60;;;;;;;;;;5044566;28;20056;-59
2023/11/02 05:55:39;;;;;;;1.45;0.63;;;;;;;;;;5040591;28;20045;-59
2023/11/02 05:58:06;;;;;;;0.90;0.50;;;;;;;;;;5036447;28;20128;-59
2023/11/02 06:00:32;;;;;;;0.95;0.77;;;;;;;;;;5046483;28;20051;-59
2023/11/02 06:02:58;;;;;;;2.50;0.50;;;;;;;;;;5044430;28;20033;-60
2023/11/02 06:05:24;;;;;;;0.98;0.60;;;;;;;;;;5044040;28;20056;-60
2023/11/02 06:07:50;;;;;;;1.40;0.70;;;;;;;;;;5043327;28;20449;-59
2023/11/02 06:10:16;;;;;;;1.55;0.70;;;;;;;;;;5043970;28;20028;-59
2023/11/02 06:12:42;;;;;;;1.17;0.70;;;;;;;;;;5045647;28;20041;-59
2023/11/02 06:15:09;;;;;;;1.08;0.50;;;;;;;;;;5045372;28;20053;-59
2023/11/02 06:17:35;;;;;;;1.55;0.98;;;;;;;;;;5044998;28;20033;-59
2023/11/02 06:20:01;;;;;;;3.45;1.85;;;;;;;;;;5041120;28;20049;-59
2023/11/02 06:22:27;;;;;;;2.92;1.77;;;;;;;;;;5040929;28;20033;-59
2023/11/02 06:24:53;;;;;;;3.53;1.70;;;;;;;;;;5044131;28;20513;-58
2023/11/02 06:27:20;;;;;;;1.35;1.13;;;;;;;;;;5045724;28;20049;-58
2023/11/02 06:29:46;;;;;;;0.65;0.60;;;;;;;;;;5045705;28;20060;-59
2023/11/02 06:32:12;;;;;;;0.95;0.70;;;;;;;;;;5043645;28;20417;-59
2023/11/02 06:34:39;;;;;;;1.48;0.68;;;;;;;;;;5044814;28;20052;-58
2023/11/02 06:37:11;;;;;;;1.08;0.65;;;;;;;;;;5044728;28;20037;-59
2023/11/02 06:39:37;;;;;;;1.10;0.85;;;;;;;;;;5043076;28;20463;-58
2023/11/02 06:42:04;;;;;;;1.23;0.70;;;;;;;;;;5043231;28;20052;-59
2023/11/02 06:44:30;;;;;;;1.00;0.70;;;;;;;;;;5047088;28;20044;-59
2023/11/02 06:46:57;;;;;;;1.48;1.00;;;;;;;;;;5047352;28;20056;-58
2023/11/02 06:49:23;;;;;;;1.13;0.80;;;;;;;;;;5045807;28;20520;-58
2023/11/02 06:51:50;;;;;;;2.55;1.40;;;;;;;;;;5047184;28;20379;-58
2023/11/02 06:54:16;;;;;;;2.05;0.90;;;;;;;;;;5047073;28;20032;-58
2023/11/02 06:56:42;;;;;;;1.13;0.88;;;;;;;;;;5046691;28;20055;-58
2023/11/02 06:59:08;;;;;;;2.55;1.15;;;;;;;;;;5045237;28;20048;-58
2023/11/02 07:01:36;;;;;;;1.77;0.90;;;;;;;;;;5047089;28;20056;-58
2023/11/02 07:04:03;;;;;;;2.50;1.00;;;;;;;;;;5047094;28;20053;-58
2023/11/02 07:06:30;;;;;;;2.33;0.95;;;;;;;;;;5043551;28;20033;-58
2023/11/02 07:08:56;;;;;;;2.40;0.60;;;;;;;;;;5044169;28;20033;-59
2023/11/02 07:11:22;;;;;;;1.63;0.80;;;;;;;;;;5045937;28;20505;-58
2023/11/02 07:13:48;;;;;;;2.15;0.73;;;;;;;;;;5043226;28;21542;-59
2023/11/02 07:16:14;;;;;;;1.75;1.20;;;;;;;;;;5046935;28;20048;-59
2023/11/02 07:18:40;;;;;;;1.30;1.20;;;;;;;;;;5043980;28;20045;-59
2023/11/02 07:21:06;;;;;;;2.28;1.20;;;;;;;;;;5043771;28;20036;-58
2023/11/02 07:23:32;;;;;;;1.63;1.25;;;;;;;;;;5045059;28;20040;-59
2023/11/02 07:25:58;;;;;;;4.07;1.23;;;;;;;;;;5048194;28;20041;-61
2023/11/02 07:28:24;;;;;;;1.75;1.50;;;;;;;;;;5045807;28;20026;-60
2023/11/02 07:30:51;;;;;;;1.55;0.90;;;;;;;;;;5049928;28;20059;-59
2023/11/02 07:33:17;;;;;;;0.77;0.70;;;;;;;;;;5047282;28;20064;-60
2023/11/02 07:35:43;;;;;;;1.25;0.70;;;;;;;;;;5047238;28;20429;-60
2023/11/02 07:38:09;;;;;;;4.68;1.10;;;;;;;;;;5046500;28;20384;-59
2023/11/02 07:40:35;;;;;;;4.78;1.70;;;;;;;;;;5047041;28;20414;-59
2023/11/02 07:43:01;;;;;;;3.63;2.15;;;;;;;;;;5049951;28;20400;-59
2023/11/02 07:45:27;;;;;;;1.48;1.30;;;;;;;;;;5047129;28;20052;-58
2023/11/02 07:47:54;;;;;;;1.70;1.40;;;;;;;;;;5048664;28;20033;-58
2023/11/02 07:50:20;;;;;;;2.33;1.50;;;;;;;;;;5046122;28;20040;-57
2023/11/02 07:52:46;;;;;;;1.67;1.00;;;;;;;;;;5045670;28;20038;-58
2023/11/02 07:55:12;;;;;;;3.08;1.17;;;;;;;;;;5048880;28;20657;-58
2023/11/02 07:57:38;;;;;;;1.23;0.90;;;;;;;;;;5048511;28;20048;-58
2023/11/02 08:00:05;;;;;;;3.35;1.67;;;;;;;;;;5048381;28;20437;-58
2023/11/02 08:02:37;;;;;;;2.50;1.65;;;;;;;;;;5047460;28;20049;-58
2023/11/02 08:05:04;;;;;;;2.58;1.95;;;;;;;;;;5050159;28;20037;-59
2023/11/02 08:07:30;;;;;;;1.58;1.48;;;;;;;;;;5045388;28;20052;-59
2023/11/02 08:09:56;;;;;;;2.05;1.58;;;;;;;;;;5046967;28;20039;-59
2023/11/02 08:12:22;;;;;;;3.83;2.47;;;;;;;;;;5045911;28;20045;-59
2023/11/02 08:14:49;;;;;;;3.53;1.92;;;;;;;;;;5044908;28;20056;-59
2023/11/02 08:17:17;;;;;;;3.53;2.10;;;;;;;;;;5045447;28;20033;-59
2023/11/02 08:19:45;;;;;;;4.03;2.25;;;;;;;;;;5046180;28;20033;-59
2023/11/02 08:22:11;;;;;;;3.00;2.42;;;;;;;;;;5048786;28;20033;-59
2023/11/02 08:24:38;;;;;;;3.95;1.92;;;;;;;;;;5046113;28;20037;-59
2023/11/02 08:27:05;;;;;;;2.65;1.55;;;;;;;;;;5045676;28;20049;-59
2023/11/02 08:29:32;;;;;;;1.17;0.70;;;;;;;;;;5047697;28;20029;-59
2023/11/02 08:31:58;;;;;;;0.93;0.80;;;;;;;;;;5046580;28;20041;-59
2023/11/02 08:34:24;;;;;;;1.80;0.70;;;;;;;;;;5046078;28;20433;-58
2023/11/02 08:36:50;;;;;;;0.65;0.60;;;;;;;;;;5042162;28;20056;-60
2023/11/02 08:39:17;;;;;;;0.60;0.60;;;;;;;;;;5047564;28;20048;-58
2023/11/02 08:41:43;;;;;;;2.53;0.70;;;;;;;;;;5049217;28;20029;-58
2023/11/02 08:44:09;;;;;;;1.10;0.90;;;;;;;;;;5049221;28;20048;-60
2023/11/02 08:46:36;;;;;;;0.70;0.40;;;;;;;;;;5047943;28;20051;-59
2023/11/02 08:49:03;;;;;;;1.02;0.30;;;;;;;;;;5045358;28;20040;-60
2023/11/02 08:51:29;;;;;;;1.55;0.50;;;;;;;;;;5045525;28;20433;-59
2023/11/02 08:53:55;;;;;;;2.38;0.60;;;;;;;;;;5046175;28;20028;-60
2023/11/02 08:56:21;;;;;;;0.40;0.40;;;;;;;;;;5049259;28;20575;-60
2023/11/02 08:58:54;;;;;;;0.80;0.57;;;;;;;;;;5044572;28;20048;-60
2023/11/02 09:01:23;;;;;;;0.55;0.50;;;;;;;;;;5049409;28;20048;-60
2023/11/02 09:03:57;;;;;;;0.77;0.47;;;;;;;;;;5047262;28;20041;-57
2023/11/02 09:06:24;;;;;;;1.20;0.60;;;;;;;;;;5049528;28;20037;-59
2023/11/02 09:08:51;;;;;;;0.80;0.80;;;;;;;;;;5042311;28;20044;-57
2023/11/02 09:11:18;;;;;;;1.08;0.73;;;;;;;;;;5047003;28;20407;-57
2023/11/02 09:13:45;;;;;;;0.75;0.50;;;;;;;;;;5040415;28;20041;-57
2023/11/02 09:16:11;;;;;;;1.50;1.00;;;;;;;;;;5044234;28;20053;-57
2023/11/02 09:18:39;;;;;;;2.00;1.20;;;;;;;;;;5044405;28;20669;-57
2023/11/02 09:21:06;;;;;;;0.80;0.60;;;;;;;;;;5048429;28;20051;-58
2023/11/02 09:23:34;;;;;;;0.60;0.60;;;;;;;;;;5044674;28;20063;-57
2023/11/02 09:26:05;;;;;;;0.93;0.57;;;;;;;;;;5048621;28;20053;-57
2023/11/02 09:28:33;;;;;;;0.50;0.50;;;;;;;;;;5042836;28;20510;-58
2023/11/02 09:30:59;;;;;;;0.65;0.65;;;;;;;;;;5042006;28;20166;-58
2023/11/02 09:33:25;;;;;;;1.90;0.68;;;;;;;;;;5044887;28;20534;-58
2023/11/02 09:35:52;;;;;;;0.73;0.63;;;;;;;;;;5047309;28;20057;-58
2023/11/02 09:38:19;;;;;;;0.50;0.40;;;;;;;;;;5046253;28;20037;-58
2023/11/02 09:40:46;;;;;;;0.30;0.30;;;;;;;;;;5047541;28;20500;-58
2023/11/02 09:43:12;;;;;;;0.77;0.50;;;;;;;;;;5046995;28;20053;-58
2023/11/02 09:45:38;;;;;;;1.40;0.50;;;;;;;;;;5044929;28;20032;-58
2023/11/02 09:48:04;;;;;;;0.60;0.50;;;;;;;;;;5043957;28;20049;-58
2023/11/02 09:50:30;;;;;;;0.70;0.60;;;;;;;;;;5047679;28;20060;-58
2023/11/02 09:52:57;;;;;;;0.75;0.70;;;;;;;;;;5046162;28;20037;-58
2023/11/02 09:55:23;;;;;;;1.05;0.93;;;;;;;;;;5048036;28;20056;-58
2023/11/02 09:57:50;;;;;;;0.80;0.70;;;;;;;;;;5044634;28;20059;-58
2023/11/02 10:00:20;;;;;;;1.05;0.50;;;;;;;;;;5047036;28;20048;-59
2023/11/02 10:02:50;;;;;;;;;;;;;;;;;;5046466;28;20045;-59
2023/11/02 10:05:17;;;;;;;1.38;1.17;;;;;;;;;;5044822;28;19913;-59
2023/11/02 10:07:44;;;;;;;1.20;1.00;;;;;;;;;;5042492;28;20417;-59
2023/11/02 10:10:13;;;;;;;2.88;0.65;;;;;;;;;;5044223;28;20041;-58
2023/11/02 10:12:43;;;;;;;0.40;0.40;;;;;;;;;;5046704;28;20059;-58
2023/11/02 10:15:11;;;;;;;;;;;;;;;;;;5042027;28;20036;-58
2023/11/02 10:17:38;;;;;;;0.63;0.50;;;;;;;;;;5041881;28;19919;-58
2023/11/02 10:20:14;;;;;;;1.77;0.43;;;;;;;;;;5041969;28;20057;-58
2023/11/02 10:22:42;;;;;;;0.93;0.65;;;;;;;;;;5045822;28;20041;-59
2023/11/02 10:25:13;;;;;;;1.45;1.02;;;;;;;;;;5042890;28;20068;-59
2023/11/02 10:27:43;;;;;;;0.70;0.40;;;;;;;;;;5040198;28;20518;-60
2023/11/02 10:30:11;;;;;;;0.95;0.40;;;;;;;;;;5046786;28;20032;-59
2023/11/02 10:32:37;;;;;;;0.80;0.43;;;;;;;;;;5046057;28;20033;-58
2023/11/02 10:35:05;;;;;;;0.40;0.40;;;;;;;;;;5047112;28;20032;-58
2023/11/02 10:37:33;;;;;;;3.50;1.60;;;;;;;;;;5047026;28;20040;-58
2023/11/02 10:40:00;;;;;;;3.45;1.75;;;;;;;;;;5046210;28;20052;-60
2023/11/02 10:42:27;;;;;;;1.98;1.10;;;;;;;;;;5044028;28;20151;-59
2023/11/02 10:44:54;;;;;;;3.22;1.48;;;;;;;;;;5047104;28;20044;-59
2023/11/02 10:47:26;;;;;;;1.13;0.70;;;;;;;;;;5047835;28;20064;-59
2023/11/02 10:49:54;;;;;;;0.93;0.60;;;;;;;;;;5045939;28;20499;-59
2023/11/02 10:52:27;;;;;;;2.22;0.30;;;;;;;;;;5047571;28;20057;-59
2023/11/02 10:55:07;;;;;;;0.30;0.30;;;;;;;;;;5047012;28;20036;-60
2023/11/02 10:57:36;;;;;;;0.20;0.20;;;;;;;;;;5042581;28;20409;-59
2023/11/02 11:00:07;;;;;;;0.40;0.40;;;;;;;;;;5051055;28;20049;-59
2023/11/02 11:02:36;;;;;;;1.80;0.40;;;;;;;;;;5051574;28;20521;-59
2023/11/02 11:05:06;;;;;;;0.60;0.47;;;;;;;;;;5051744;28;20036;-59
2023/11/02 11:07:35;;;;;;;;;;;;;;;;;;5051669;28;20041;-59
2023/11/02 11:10:03;;;;;;;0.25;0.20;;;;;;;;;;5050748;28;19928;-59
2023/11/02 11:12:36;;;;;;;1.35;0.63;;;;;;;;;;5051296;28;20041;-59
2023/11/02 11:15:02;;;;;;;0.32;0.32;;;;;;;;;;5045352;28;20043;-59
2023/11/02 11:17:29;;;;;;;1.27;0.50;;;;;;;;;;5050431;28;20482;-59
2023/11/02 11:19:55;;;;;;;1.13;0.57;;;;;;;;;;5045725;28;20048;-59
2023/11/02 11:22:28;;;;;;;1.25;0.55;;;;;;;;;;5048455;28;20076;-59
2023/11/02 11:24:55;;;;;;;0.20;0.20;;;;;;;;;;5046427;28;20025;-59
2023/11/02 11:27:32;;;;;;;0.73;0.50;;;;;;;;;;5049770;28;20056;-59
2023/11/02 11:29:59;;;;;;;1.30;0.22;;;;;;;;;;5044595;28;20049;-59
2023/11/02 11:32:26;;;;;;;0.68;0.30;;;;;;;;;;5049373;28;20033;-59
2023/11/02 11:35:03;;;;;;;0.57;0.30;;;;;;;;;;5046529;28;20409;-59
2023/11/02 11:37:34;;;;;;;2.03;0.30;;;;;;;;;;5040706;28;20041;-59
2023/11/02 11:40:05;;;;;;;4.00;0.60;;;;;;;;;;5048646;28;20053;-59
2023/11/02 11:43:08;;;;;;;1.10;0.70;;;;;;;;;;5046233;28;20044;-59
2023/11/02 11:45:37;;;;;;;1.73;0.50;;;;;;;;;;5045091;28;20520;-59
2023/11/02 11:48:05;;;;;;;0.60;0.50;;;;;;;;;;5045507;28;20401;-59
2023/11/02 11:50:39;;;;;;;1.60;0.70;;;;;;;;;;5047165;28;20399;-59
2023/11/02 11:53:20;;;;;;;1.23;0.43;;;;;;;;;;5046936;28;20028;-59
2023/11/02 11:55:49;;;;;;;3.25;0.75;;;;;;;;;;5047877;28;20037;-60
2023/11/02 11:58:16;;;;;;;1.40;0.57;;;;;;;;;;5045789;28;20037;-59
2023/11/02 12:00:48;;;;;;;0.60;0.50;;;;;;;;;;5047378;28;20044;-58
2023/11/02 12:03:33;;;;;;;1.02;0.40;;;;;;;;;;5048901;28;20048;-58
2023/11/02 12:06:00;;;;;;;1.77;0.60;;;;;;;;;;5043321;28;20040;-58
2023/11/02 12:08:27;;;;;;;1.63;0.60;;;;;;;;;;5043400;28;20029;-59
2023/11/02 12:10:57;;;;;;;2.42;0.52;;;;;;;;;;5048012;28;20442;-59
2023/11/02 12:13:27;;;;;;;1.25;0.50;;;;;;;;;;5044805;28;20498;-59
2023/11/02 12:15:54;;;;;;;;;;;;;;;;;;5048224;28;20083;-58
2023/11/02 12:18:24;;;;;;;2.30;1.00;;;;;;;;;;5047665;28;19936;-59
2023/11/02 12:20:50;;;;;;;;;;;;;;;;;;5049578;28;20045;-59
2023/11/02 12:23:16;;;;;;;1.33;0.40;;;;;;;;;;5044308;28;20514;-58
2023/11/02 12:25:42;;;;;;;0.80;0.32;;;;;;;;;;5046118;28;20076;-58
2023/11/02 12:28:12;;;;;;;1.52;0.40;;;;;;;;;;5045534;28;20405;-58
2023/11/02 12:30:42;;;;;;;1.27;0.30;;;;;;;;;;5047632;28;20037;-58
2023/11/02 12:33:09;;;;;;;3.72;0.43;;;;;;;;;;5048233;28;20433;-58
2023/11/02 12:35:35;;;;;;;1.52;0.60;;;;;;;;;;5049702;28;20029;-58
2023/11/02 12:38:03;;;;;;;2.05;0.30;;;;;;;;;;5043358;28;20052;-58
2023/11/02 12:40:53;;;;;;;1.10;0.30;;;;;;;;;;5046021;28;20036;-58
2023/11/02 12:43:23;;;;;;;0.93;0.30;;;;;;;;;;5046039;28;20036;-58
2023/11/02 12:45:55;;;;;;;2.15;0.70;;;;;;;;;;5049180;28;20045;-58
2023/11/02 12:48:28;;;;;;;0.60;0.25;;;;;;;;;;5044813;28;20183;-59
2023/11/02 12:50:55;;;;;;;0.57;0.50;;;;;;;;;;5048728;28;20033;-58
2023/11/02 12:53:30;;;;;;;1.90;0.47;;;;;;;;;;5049047;28;20052;-58
2023/11/02 12:56:00;;;;;;;0.50;0.30;;;;;;;;;;5049068;28;20052;-58
2023/11/02 12:58:27;;;;;;;0.82;0.30;;;;;;;;;;5047890;28;20394;-58
2023/11/02 13:01:00;;;;;;;0.93;0.40;;;;;;;;;;5048532;28;20044;-58
2023/11/02 13:03:27;;;;;;;1.02;0.50;;;;;;;;;;5044366;28;20044;-59
2023/11/02 13:05:53;;;;;;;1.70;0.63;;;;;;;;;;5048808;28;20029;-59
2023/11/02 13:08:20;;;;;;;0.88;0.45;;;;;;;;;;5044709;28;20037;-59
2023/11/02 13:10:46;;;;;;;1.08;0.60;;;;;;;;;;5047487;28;20068;-58
2023/11/02 13:13:12;;;;;;;2.35;0.55;;;;;;;;;;5043547;28;20041;-58
2023/11/02 13:15:38;;;;;;;0.40;0.40;;;;;;;;;;5045902;28;20047;-58
2023/11/02 13:18:05;;;;;;;3.72;0.40;;;;;;;;;;5045146;28;20040;-57
2023/11/02 13:20:34;;;;;;;2.60;0.80;;;;;;;;;;5045581;28;20049;-58
2023/11/02 13:23:01;;;;;;;1.63;0.57;;;;;;;;;;5047204;28;20033;-59
2023/11/02 13:25:28;;;;;;;0.70;0.30;;;;;;;;;;5043075;28;20032;-58
2023/11/02 13:27:59;;;;;;;1.65;0.45;;;;;;;;;;5040245;28;20418;-59
2023/11/02 13:30:26;;;;;;;0.60;0.40;;;;;;;;;;5046306;28;20514;-58
2023/11/02 13:32:54;;;;;;;0.85;0.50;;;;;;;;;;5046511;28;20042;-58
2023/11/02 13:35:21;;;;;;;0.80;0.40;;;;;;;;;;5047737;28;20029;-59
2023/11/02 13:37:47;;;;;;;0.80;0.50;;;;;;;;;;5046686;28;20025;-59
2023/11/02 13:40:15;;;;;;;1.05;0.47;;;;;;;;;;5042393;28;20033;-59
2023/11/02 13:42:47;;;;;;;1.17;0.50;;;;;;;;;;5042538;28;20110;-59
2023/11/02 13:45:13;;;;;;;1.33;0.70;;;;;;;;;;5048103;28;20037;-59
2023/11/02 13:47:39;;;;;;;2.35;0.50;;;;;;;;;;5046199;28;20040;-58
2023/11/02 13:50:06;;;;;;;0.75;0.40;;;;;;;;;;5044121;28;20044;-58
2023/11/02 13:52:32;;;;;;;0.75;0.50;;;;;;;;;;5039561;28;20098;-59
2023/11/02 13:55:02;;;;;;;0.50;0.40;;;;;;;;;;5042127;28;20049;-59
2023/11/02 13:57:28;;;;;;;0.82;0.50;;;;;;;;;;5047193;28;20048;-58
2023/11/02 13:59:56;;;;;;;1.00;0.50;;;;;;;;;;5043499;28;20033;-59
2023/11/02 14:02:22;;;;;;;1.73;0.40;;;;;;;;;;5045758;28;20036;-58
2023/11/02 14:04:48;;;;;;;1.50;0.80;;;;;;;;;;5043760;28;20048;-59
2023/11/02 14:07:16;;;;;;;1.10;1.00;;;;;;;;;;5046905;28;20043;-59
2023/11/02 14:09:43;;;;;;;0.68;0.55;;;;;;;;;;5042485;28;20036;-59
2023/11/02 14:12:10;;;;;;;1.33;0.55;;;;;;;;;;5046520;28;20379;-57
2023/11/02 14:14:37;;;;;;;1.95;0.60;;;;;;;;;;5039878;28;20041;-58
2023/11/02 14:17:04;;;;;;;0.98;0.60;;;;;;;;;;5046132;28;20521;-58
2023/11/02 14:19:30;;;;;;;1.02;0.57;;;;;;;;;;5045989;28;20076;-58
2023/11/02 14:21:57;;;;;;;0.98;0.43;;;;;;;;;;5046233;28;20052;-59
2023/11/02 14:24:23;;;;;;;0.73;0.47;;;;;;;;;;5038789;28;20044;-59
2023/11/02 14:26:49;;;;;;;1.63;0.50;;;;;;;;;;5041280;28;20029;-58
2023/11/02 14:29:15;;;;;;;0.40;0.30;;;;;;;;;;5044246;28;20063;-58
2023/11/02 14:31:41;;;;;;;1.92;0.50;;;;;;;;;;5043552;28;20045;-58
2023/11/02 14:34:09;;;;;;;0.73;0.40;;;;;;;;;;5041328;28;20039;-59
2023/11/02 14:36:35;;;;;;;1.20;0.30;;;;;;;;;;5039184;28;20029;-57
2023/11/02 14:39:03;;;;;;;0.75;0.40;;;;;;;;;;5040317;28;20061;-58
2023/11/02 14:41:29;;;;;;;0.93;0.60;;;;;;;;;;5043245;28;20047;-58
2023/11/02 14:43:58;;;;;;;0.88;0.43;;;;;;;;;;5042244;28;20415;-58
2023/11/02 14:46:24;;;;;;;1.05;0.50;;;;;;;;;;5047685;28;20029;-58
2023/11/02 14:48:50;;;;;;;0.82;0.60;;;;;;;;;;5042707;28;20048;-58
2023/11/02 14:51:17;;;;;;;1.00;0.68;;;;;;;;;;5047551;28;20033;-58
2023/11/02 14:53:43;;;;;;;0.55;0.47;;;;;;;;;;5038277;28;20046;-58
2023/11/02 14:56:09;;;;;;;1.33;0.70;;;;;;;;;;5044577;28;20052;-58
2023/11/02 14:58:35;;;;;;;0.75;0.60;;;;;;;;;;5045744;28;20048;-58
2023/11/02 15:01:01;;;;;;;1.05;0.70;;;;;;;;;;5046034;28;20068;-57